createdAt,value
2016-11-11T00:00:03.783Z,99.99
2016-11-11T00:01:17.388Z,99.99
2016-11-11T00:02:30.989Z,99.99
2016-11-11T00:03:44.658Z,99.99
2016-11-11T00:04:58.280Z,99.99
2016-11-11T00:06:11.357Z,99.99
2016-11-11T00:07:25.093Z,99.99
2016-11-11T00:08:38.486Z,99.99
2016-11-11T00:09:52.146Z,99.99
2016-11-11T00:11:06.228Z,99.99
2016-11-11T00:12:19.828Z,99.99
2016-11-11T00:13:33.452Z,99.99
2016-11-11T00:14:47.211Z,99.99
2016-11-11T00:16:00.262Z,99.99
2016-11-11T00:17:13.132Z,99.99
2016-11-11T00:18:26.695Z,99.99
2016-11-11T00:19:40.577Z,99.99
2016-11-11T00:20:54.038Z,99.99
2016-11-11T00:22:07.185Z,99.99
2016-11-11T00:23:20.314Z,99.99
2016-11-11T00:24:33.981Z,99.99
2016-11-11T00:25:47.516Z,99.99
2016-11-11T00:27:00.639Z,99.99
2016-11-11T00:28:13.763Z,99.5
2016-11-11T00:29:26.642Z,99.6
2016-11-11T00:30:39.122Z,99.21
2016-11-11T00:31:52.662Z,98.73
2016-11-11T00:33:06.249Z,98.05
2016-11-11T00:34:19.931Z,98.1
2016-11-11T00:35:33.164Z,97.47
2016-11-11T00:36:46.254Z,97.19
2016-11-11T00:37:59.331Z,97.33
2016-11-11T00:39:12.991Z,97.24
2016-11-11T00:40:26.570Z,97.33
2016-11-11T00:41:40.211Z,97.24
2016-11-11T00:42:53.858Z,97.24
2016-11-11T00:44:07.506Z,96.94
2016-11-11T00:45:21.118Z,97.04
2016-11-11T00:46:34.234Z,97.33
2016-11-11T00:47:47.881Z,97.33
2016-11-11T00:49:01.566Z,97.24
2016-11-11T00:50:15.253Z,97.42
2016-11-11T00:51:28.832Z,97.33
2016-11-11T00:52:42.491Z,97.77
2016-11-11T00:53:56.142Z,97.86
2016-11-11T00:55:09.171Z,97.67
2016-11-11T00:56:22.269Z,97.96
2016-11-11T00:57:36.186Z,97.86
2016-11-11T00:58:49.795Z,97.96
2016-11-11T01:00:03.376Z,98.05
2016-11-11T01:01:17.024Z,97.67
2016-11-11T01:02:30.132Z,97.86
2016-11-11T01:03:43.734Z,98.34
2016-11-11T01:04:57.226Z,98.44
2016-11-11T01:06:09.162Z,98.44
2016-11-11T01:07:22.769Z,98.44
2016-11-11T01:08:36.191Z,98.54
2016-11-11T01:09:49.773Z,98.54
2016-11-11T01:11:03.393Z,98.25
2016-11-11T01:12:16.461Z,97.86
2016-11-11T01:13:30.034Z,97.38
2016-11-11T01:14:43.328Z,96.89
2016-11-11T01:15:56.951Z,96.31
2016-11-11T01:17:10.378Z,96.66
2016-11-11T01:18:24.020Z,95.54
2016-11-11T01:19:37.639Z,95.45
2016-11-11T01:20:51.227Z,95.16
2016-11-11T01:22:04.902Z,94.87
2016-11-11T01:23:18.507Z,94.92
2016-11-11T01:24:31.651Z,94.48
2016-11-11T01:25:44.781Z,94.58
2016-11-11T01:26:57.979Z,94.68
2016-11-11T01:28:11.121Z,94.48
2016-11-11T01:29:24.715Z,94.48
2016-11-11T01:30:38.232Z,94.1
2016-11-11T01:31:50.841Z,94.38
2016-11-11T01:33:04.443Z,94.68
2016-11-11T01:34:18.030Z,94.58
2016-11-11T01:35:31.721Z,94.68
2016-11-11T01:36:44.829Z,94.77
2016-11-11T01:37:57.886Z,94.2
2016-11-11T01:39:11.551Z,94.2
2016-11-11T01:40:23.809Z,94.2
2016-11-11T01:41:36.047Z,94.48
2016-11-11T01:42:49.699Z,94.68
2016-11-11T01:44:03.305Z,94.87
2016-11-11T01:45:16.992Z,94.77
2016-11-11T01:46:30.578Z,95.06
2016-11-11T01:47:44.228Z,95.35
2016-11-11T01:48:57.285Z,95.01
2016-11-11T01:50:10.297Z,95.35
2016-11-11T01:51:23.365Z,95.74
2016-11-11T01:52:37.375Z,95.74
2016-11-11T01:53:50.984Z,95.83
2016-11-11T01:55:04.615Z,95.45
2016-11-11T01:56:18.181Z,95.64
2016-11-11T01:57:30.708Z,95.45
2016-11-11T01:58:44.233Z,95.79
2016-11-11T01:59:57.893Z,95.79
2016-11-11T02:01:10.958Z,95.64
2016-11-11T02:02:24.508Z,95.5
2016-11-11T02:03:38.157Z,96.22
2016-11-11T02:04:50.956Z,96.36
2016-11-11T02:06:04.654Z,96.56
2016-11-11T02:07:17.803Z,96.36
2016-11-11T02:08:31.422Z,96.51
2016-11-11T02:09:44.999Z,96.56
2016-11-11T02:10:57.561Z,96.75
2016-11-11T02:12:11.180Z,96.66
2016-11-11T02:13:24.233Z,96.84
2016-11-11T02:14:37.914Z,96.94
2016-11-11T02:15:50.403Z,96.36
2016-11-11T02:17:03.431Z,96.61
2016-11-11T02:18:17.029Z,96.51
2016-11-11T02:19:30.388Z,96.89
2016-11-11T02:20:43.904Z,97.14
2016-11-11T02:21:57.554Z,97.14
2016-11-11T02:23:11.204Z,97.24
2016-11-11T02:24:24.353Z,97.33
2016-11-11T02:25:37.974Z,97.19
2016-11-11T02:26:51.620Z,97.24
2016-11-11T02:28:04.777Z,97.42
2016-11-11T02:29:18.339Z,97.42
2016-11-11T02:30:31.967Z,97.33
2016-11-11T02:31:44.987Z,97.24
2016-11-11T02:32:58.676Z,97.42
2016-11-11T02:34:12.286Z,97.62
2016-11-11T02:35:25.924Z,97.42
2016-11-11T02:36:39.595Z,97.24
2016-11-11T02:37:52.685Z,97.62
2016-11-11T02:39:06.235Z,97.14
2016-11-11T02:40:19.801Z,96.89
2016-11-11T02:41:33.464Z,96.94
2016-11-11T02:42:47.199Z,96.99
2016-11-11T02:44:00.829Z,97.81
2016-11-11T02:45:14.340Z,97.81
2016-11-11T02:46:28.006Z,97.72
2016-11-11T02:47:41.112Z,98.2
2016-11-11T02:48:54.158Z,97.81
2016-11-11T02:50:07.438Z,98
2016-11-11T02:51:21.099Z,97.72
2016-11-11T02:52:34.720Z,98
2016-11-11T02:53:48.406Z,97.72
2016-11-11T02:55:02.061Z,98
2016-11-11T02:56:15.176Z,98.29
2016-11-11T02:57:27.762Z,98.39
2016-11-11T02:58:41.432Z,99.16
2016-11-11T02:59:54.281Z,98.68
2016-11-11T03:01:07.361Z,97.81
2016-11-11T03:02:20.964Z,98.2
2016-11-11T03:03:34.690Z,97.81
2016-11-11T03:04:47.912Z,98.29
2016-11-11T03:06:01.526Z,98.97
2016-11-11T03:07:14.684Z,98.15
2016-11-11T03:08:27.208Z,98.58
2016-11-11T03:09:40.819Z,98.83
2016-11-11T03:10:54.468Z,97.86
2016-11-11T03:12:07.032Z,98.73
2016-11-11T03:13:20.716Z,99.07
2016-11-11T03:14:34.364Z,98.39
2016-11-11T03:15:47.952Z,99.07
2016-11-11T03:17:01.352Z,98.49
2016-11-11T03:18:14.463Z,99.55
2016-11-11T03:19:28.071Z,99.45
2016-11-11T03:20:41.731Z,99.99
2016-11-11T03:21:54.797Z,99.65
2016-11-11T03:23:08.418Z,99.93
2016-11-11T03:24:21.980Z,99.16
2016-11-11T03:25:34.713Z,99.45
2016-11-11T03:26:48.314Z,98.78
2016-11-11T03:28:01.886Z,99.99
2016-11-11T03:29:15.473Z,99.99
2016-11-11T03:30:28.819Z,99.45
2016-11-11T03:32:13.574Z,99.99
2016-11-11T03:33:26.709Z,99.99
2016-11-11T03:34:40.015Z,99.99
2016-11-11T03:35:53.739Z,99.99
2016-11-11T03:37:07.132Z,99.99
2016-11-11T03:38:20.763Z,99.99
2016-11-11T03:39:34.366Z,99.99
2016-11-11T03:40:48.055Z,99.99
2016-11-11T03:42:01.643Z,99.99
2016-11-11T03:43:14.227Z,99.99
2016-11-11T03:44:27.789Z,99.99
2016-11-11T03:45:40.907Z,99.65
2016-11-11T03:46:54.478Z,99.65
2016-11-11T03:48:07.514Z,99.99
2016-11-11T03:49:21.245Z,99.99
2016-11-11T03:50:34.321Z,99.99
2016-11-11T03:51:48.008Z,99.99
2016-11-11T03:53:01.335Z,99.65
2016-11-11T03:54:14.987Z,99.99
2016-11-11T03:55:28.731Z,99.99
2016-11-11T03:56:41.831Z,99.99
2016-11-11T03:57:54.093Z,99.93
2016-11-11T03:59:07.698Z,99.45
2016-11-11T04:00:20.800Z,99.07
2016-11-11T04:01:33.876Z,99.45
2016-11-11T04:02:47.427Z,99.65
2016-11-11T04:04:00.455Z,99.99
2016-11-11T04:05:45.151Z,99.45
2016-11-11T04:06:57.766Z,99.45
2016-11-11T04:08:11.323Z,99.65
2016-11-11T04:09:23.816Z,99.99
2016-11-11T04:10:37.398Z,99.98
2016-11-11T04:11:51.148Z,99.99
2016-11-11T04:13:04.170Z,99.99
2016-11-11T04:14:17.937Z,99.99
2016-11-11T04:15:31.549Z,99.99
2016-11-11T04:16:44.647Z,99.99
2016-11-11T04:17:58.296Z,99.99
2016-11-11T04:19:11.833Z,99.99
2016-11-11T04:20:25.385Z,99.99
2016-11-11T04:21:39.250Z,99.99
2016-11-11T04:22:52.790Z,99.99
2016-11-11T04:24:06.363Z,99.99
2016-11-11T04:25:19.451Z,99.99
2016-11-11T04:26:33.091Z,99.99
2016-11-11T04:27:46.161Z,99.99
2016-11-11T04:28:59.800Z,99.99
2016-11-11T04:30:12.888Z,99.99
2016-11-11T04:31:26.278Z,99.99
2016-11-11T04:32:39.347Z,99.99
2016-11-11T04:33:52.912Z,99.99
2016-11-11T04:35:06.489Z,99.99
2016-11-11T04:36:19.630Z,99.99
2016-11-11T04:37:33.120Z,99.99
2016-11-11T04:38:46.651Z,99.99
2016-11-11T04:39:59.190Z,99.99
2016-11-11T04:41:13.310Z,99.99
2016-11-11T04:42:26.955Z,99.99
2016-11-11T04:43:40.516Z,99.99
2016-11-11T04:44:53.072Z,99.99
2016-11-11T04:46:06.204Z,99.99
2016-11-11T04:47:19.881Z,99.99
2016-11-11T04:48:33.482Z,99.99
2016-11-11T04:49:46.378Z,99.99
2016-11-11T04:50:59.458Z,99.99
2016-11-11T04:52:13.043Z,99.99
2016-11-11T04:53:26.650Z,99.99
2016-11-11T04:54:40.072Z,99.99
2016-11-11T04:55:53.208Z,99.99
2016-11-11T04:57:36.820Z,99.99
2016-11-11T04:58:50.490Z,99.99
2016-11-11T05:00:04.149Z,99.99
2016-11-11T05:01:17.199Z,99.99
2016-11-11T05:02:30.829Z,99.99
2016-11-11T05:03:43.895Z,99.99
2016-11-11T05:04:56.423Z,99.99
2016-11-11T05:06:09.986Z,99.99
2016-11-11T05:07:22.729Z,99.99
2016-11-11T05:08:35.784Z,99.99
2016-11-11T05:09:48.904Z,99.99
2016-11-11T05:11:02.515Z,99.99
2016-11-11T05:12:15.692Z,99.99
2016-11-11T05:13:29.372Z,99.99
2016-11-11T05:14:42.635Z,99.99
2016-11-11T05:15:55.192Z,99.99
2016-11-11T05:17:08.075Z,99.99
2016-11-11T05:18:21.621Z,99.99
2016-11-11T05:19:35.300Z,99.99
2016-11-11T05:20:48.854Z,99.99
2016-11-11T05:23:45.697Z,99.99
2016-11-11T05:24:59.347Z,99.99
2016-11-11T05:26:12.427Z,99.99
2016-11-11T05:27:25.557Z,99.99
2016-11-11T05:28:38.655Z,99.99
2016-11-11T05:29:52.197Z,99.99
2016-11-11T05:31:05.772Z,99.99
2016-11-11T05:32:18.610Z,99.99
2016-11-11T05:33:32.253Z,99.99
2016-11-11T05:34:45.911Z,99.99
2016-11-11T05:35:58.996Z,99.99
2016-11-11T05:37:12.359Z,99.99
2016-11-11T05:38:25.989Z,99.99
2016-11-11T05:39:39.430Z,99.99
2016-11-11T05:40:53.072Z,99.99
2016-11-11T05:43:50.519Z,99.99
2016-11-11T05:45:03.354Z,99.99
2016-11-11T05:46:16.930Z,99.99
2016-11-11T05:47:29.973Z,99.99
2016-11-11T05:48:43.201Z,99.99
2016-11-11T05:49:56.847Z,99.99
2016-11-11T05:51:09.854Z,99.99
2016-11-11T05:52:54.503Z,99.99
2016-11-11T05:54:07.579Z,99.99
2016-11-11T05:55:21.190Z,99.99
2016-11-11T05:56:34.011Z,99.99
2016-11-11T05:57:47.631Z,99.99
2016-11-11T05:59:01.212Z,99.99
2016-11-11T06:00:14.830Z,99.99
2016-11-11T06:01:27.929Z,99.99
2016-11-11T06:02:41.528Z,99.99
2016-11-11T06:03:54.448Z,99.99
2016-11-11T06:05:08.109Z,99.99
2016-11-11T06:06:21.266Z,99.99
2016-11-11T06:07:34.957Z,99.99
2016-11-11T06:08:48.543Z,99.99
2016-11-11T06:10:01.590Z,99.99
2016-11-11T06:11:14.729Z,99.99
2016-11-11T06:12:27.792Z,99.99
2016-11-11T06:13:41.426Z,99.99
2016-11-11T06:14:55.016Z,99.99
2016-11-11T06:16:08.602Z,99.99
2016-11-11T06:17:22.261Z,99.99
2016-11-11T06:18:35.850Z,99.99
2016-11-11T06:19:49.384Z,99.99
2016-11-11T06:21:02.498Z,99.99
2016-11-11T06:22:15.553Z,99.99
2016-11-11T06:23:29.275Z,99.99
2016-11-11T06:24:42.945Z,99.99
2016-11-11T06:25:56.601Z,99.99
2016-11-11T06:27:10.663Z,99.99
2016-11-11T06:28:24.283Z,99.99
2016-11-11T06:29:37.370Z,99.99
2016-11-11T06:30:50.510Z,99.99
2016-11-11T06:32:03.588Z,99.99
2016-11-11T06:33:17.078Z,99.99
2016-11-11T06:34:30.697Z,99.99
2016-11-11T06:35:44.300Z,99.99
2016-11-11T06:36:59.073Z,99.99
2016-11-11T06:38:12.708Z,99.99
2016-11-11T06:39:25.797Z,99.99
2016-11-11T06:40:39.516Z,99.99
2016-11-11T06:41:52.564Z,99.99
2016-11-11T06:43:06.308Z,99.99
2016-11-11T06:44:19.381Z,99.99
2016-11-11T06:45:32.387Z,99.99
2016-11-11T06:46:46.093Z,99.99
2016-11-11T06:47:59.089Z,99.99
2016-11-11T06:49:12.766Z,99.99
2016-11-11T06:50:25.942Z,99.99
2016-11-11T06:51:39.435Z,99.99
2016-11-11T06:52:52.593Z,99.99
2016-11-11T06:54:05.652Z,99.99
2016-11-11T06:55:18.811Z,99.99
2016-11-11T06:56:31.819Z,99.99
2016-11-11T06:57:45.497Z,99.99
2016-11-11T06:58:58.567Z,99.99
2016-11-11T07:00:12.157Z,99.99
2016-11-11T07:01:25.530Z,99.99
2016-11-11T07:02:38.520Z,99.99
2016-11-11T07:03:52.108Z,99.99
2016-11-11T07:05:05.191Z,99.99
2016-11-11T07:06:18.233Z,99.99
2016-11-11T07:07:30.172Z,99.99
2016-11-11T07:08:43.736Z,99.99
2016-11-11T07:09:57.401Z,99.99
2016-11-11T07:11:10.959Z,99.99
2016-11-11T07:12:24.590Z,99.99
2016-11-11T07:13:37.650Z,99.99
2016-11-11T07:14:50.775Z,99.99
2016-11-11T07:16:03.819Z,99.99
2016-11-11T07:17:17.495Z,99.99
2016-11-11T07:18:31.144Z,99.99
2016-11-11T07:19:44.716Z,99.99
2016-11-11T07:20:57.706Z,99.99
2016-11-11T07:22:10.774Z,99.99
2016-11-11T07:23:24.441Z,99.99
2016-11-11T07:25:08.582Z,99.99
2016-11-11T07:26:21.677Z,99.99
2016-11-11T07:27:34.723Z,99.99
2016-11-11T07:28:48.321Z,99.99
2016-11-11T07:30:01.434Z,99.99
2016-11-11T07:31:13.973Z,99.99
2016-11-11T07:32:27.016Z,99.99
2016-11-11T07:33:40.439Z,99.99
2016-11-11T07:34:53.829Z,99.99
2016-11-11T07:36:07.189Z,99.99
2016-11-11T07:37:20.334Z,99.99
2016-11-11T07:38:33.355Z,99.99
2016-11-11T07:39:47.008Z,99.99
2016-11-11T07:41:00.129Z,99.99
2016-11-11T07:42:13.815Z,99.99
2016-11-11T07:43:27.434Z,99.99
2016-11-11T07:44:41.047Z,99.99
2016-11-11T07:45:54.092Z,99.99
2016-11-11T07:47:07.712Z,99.99
2016-11-11T07:48:20.774Z,99.99
2016-11-11T07:49:34.399Z,99.99
2016-11-11T07:50:47.953Z,99.99
2016-11-11T07:52:01.561Z,99.99
2016-11-11T07:53:14.962Z,99.99
2016-11-11T07:54:28.567Z,99.99
2016-11-11T07:55:41.712Z,99.99
2016-11-11T07:56:54.831Z,99.99
2016-11-11T07:58:08.478Z,99.99
2016-11-11T07:59:21.605Z,99.99
2016-11-11T08:00:35.133Z,99.99
2016-11-11T08:01:48.701Z,99.99
2016-11-11T08:03:02.388Z,99.99
2016-11-11T08:04:15.972Z,99.99
2016-11-11T08:05:29.658Z,99.99
2016-11-11T08:06:43.257Z,99.99
2016-11-11T08:07:55.791Z,99.99
2016-11-11T08:09:09.415Z,99.99
2016-11-11T08:10:22.451Z,99.99
2016-11-11T08:11:36.414Z,99.99
2016-11-11T08:12:50.038Z,99.99
2016-11-11T08:14:03.276Z,99.99
2016-11-11T08:15:16.776Z,99.99
2016-11-11T08:16:30.440Z,99.99
2016-11-11T08:17:44.347Z,99.99
2016-11-11T08:18:57.903Z,99.99
2016-11-11T08:20:11.304Z,99.99
2016-11-11T08:21:24.802Z,99.99
2016-11-11T08:22:38.139Z,99.99
2016-11-11T08:23:51.761Z,99.99
2016-11-11T08:25:05.385Z,99.99
2016-11-11T08:26:18.384Z,99.99
2016-11-11T08:27:32.037Z,99.99
2016-11-11T08:28:45.685Z,99.99
2016-11-11T08:29:59.249Z,99.99
2016-11-11T08:31:11.799Z,99.99
2016-11-11T08:32:25.458Z,99.99
2016-11-11T08:33:39.229Z,99.99
2016-11-11T08:34:52.810Z,99.99
2016-11-11T08:36:06.446Z,99.99
2016-11-11T08:37:20.106Z,99.99
2016-11-11T08:38:32.672Z,99.99
2016-11-11T08:39:46.317Z,99.99
2016-11-11T08:40:59.730Z,99.99
2016-11-11T08:42:13.766Z,99.99
2016-11-11T08:43:26.285Z,99.99
2016-11-11T08:44:39.666Z,99.99
2016-11-11T08:45:53.239Z,99.99
2016-11-11T08:47:06.905Z,99.99
2016-11-11T08:48:20.172Z,99.99
2016-11-11T08:49:33.784Z,99.99
2016-11-11T08:50:47.409Z,99.99
2016-11-11T08:52:00.783Z,99.99
2016-11-11T08:53:14.365Z,99.99
2016-11-11T08:54:27.971Z,99.99
2016-11-11T08:55:41.563Z,99.99
2016-11-11T08:56:55.193Z,99.99
2016-11-11T08:58:08.212Z,99.99
2016-11-11T08:59:21.371Z,99.99
2016-11-11T09:00:34.987Z,99.99
2016-11-11T09:01:48.656Z,99.99
2016-11-11T09:03:02.309Z,99.99
2016-11-11T09:04:15.869Z,99.99
2016-11-11T09:05:29.475Z,99.99
2016-11-11T09:06:43.081Z,99.99
2016-11-11T09:08:10.719Z,99.99
2016-11-11T09:09:23.805Z,99.99
2016-11-11T09:10:37.507Z,99.99
2016-11-11T09:11:51.047Z,99.99
2016-11-11T09:13:04.668Z,99.99
2016-11-11T09:14:18.078Z,99.99
2016-11-11T09:15:31.641Z,99.99
2016-11-11T09:16:45.247Z,99.99
2016-11-11T09:17:58.878Z,99.99
2016-11-11T09:19:12.654Z,99.99
2016-11-11T09:20:26.308Z,99.99
2016-11-11T09:21:39.946Z,99.99
2016-11-11T09:22:53.562Z,99.99
2016-11-11T09:24:06.641Z,99.99
2016-11-11T09:25:20.640Z,99.99
2016-11-11T09:26:33.705Z,99.99
2016-11-11T09:27:47.069Z,99.99
2016-11-11T09:29:00.641Z,99.99
2016-11-11T09:31:58.882Z,99.99
2016-11-11T09:33:12.535Z,99.99
2016-11-11T09:34:25.761Z,99.99
2016-11-11T09:35:39.598Z,99.99
2016-11-11T09:36:53.246Z,99.99
2016-11-11T09:38:06.815Z,99.99
2016-11-11T09:39:20.406Z,99.99
2016-11-11T09:41:05.051Z,99.99
2016-11-11T09:42:18.674Z,99.99
2016-11-11T09:43:32.326Z,99.99
2016-11-11T09:44:45.989Z,99.99
2016-11-11T09:46:30.651Z,99.99
2016-11-11T09:47:44.265Z,99.99
2016-11-11T09:48:57.812Z,99.99
2016-11-11T09:50:11.383Z,99.99
2016-11-11T09:51:25.052Z,99.99
2016-11-11T09:52:38.109Z,99.99
2016-11-11T09:53:51.748Z,99.99
2016-11-11T09:55:05.478Z,99.99
2016-11-11T09:56:18.794Z,99.99
2016-11-11T09:57:32.383Z,99.99
2016-11-11T09:58:45.946Z,99.99
2016-11-11T09:59:59.562Z,99.99
2016-11-11T10:01:13.292Z,99.99
2016-11-11T10:02:26.899Z,99.99
2016-11-11T10:03:40.779Z,99.99
2016-11-11T10:04:53.905Z,99.99
2016-11-11T10:06:07.683Z,99.99
2016-11-11T10:07:21.293Z,99.99
2016-11-11T10:08:34.833Z,99.99
2016-11-11T10:09:48.443Z,99.99
2016-11-11T10:11:02.191Z,99.99
2016-11-11T10:12:15.792Z,99.99
2016-11-11T10:13:29.399Z,99.99
2016-11-11T10:14:43.040Z,99.99
2016-11-11T10:15:56.688Z,99.99
2016-11-11T10:17:10.802Z,99.99
2016-11-11T10:18:24.400Z,99.99
2016-11-11T10:19:38.058Z,99.99
2016-11-11T10:20:51.628Z,99.99
2016-11-11T10:22:05.375Z,99.99
2016-11-11T10:23:18.981Z,99.99
2016-11-11T10:24:32.507Z,99.99
2016-11-11T10:25:46.159Z,99.99
2016-11-11T10:26:59.895Z,99.99
2016-11-11T10:28:13.919Z,99.99
2016-11-11T10:29:27.242Z,99.99
2016-11-11T10:30:40.786Z,99.99
2016-11-11T10:31:54.327Z,99.99
2016-11-11T10:33:07.898Z,99.99
2016-11-11T10:34:21.464Z,99.99
2016-11-11T10:35:35.075Z,99.99
2016-11-11T10:36:47.575Z,99.99
2016-11-11T10:38:00.594Z,99.99
2016-11-11T10:39:13.899Z,99.99
2016-11-11T10:40:26.996Z,99.99
2016-11-11T10:41:40.804Z,99.99
2016-11-11T10:42:54.392Z,99.99
2016-11-11T10:44:07.689Z,99.99
2016-11-11T10:45:21.337Z,99.99
2016-11-11T10:46:34.958Z,99.99
2016-11-11T10:47:48.560Z,99.99
2016-11-11T10:49:02.167Z,99.99
2016-11-11T10:50:14.967Z,99.99
2016-11-11T10:51:28.578Z,99.99
2016-11-11T10:52:42.297Z,99.99
2016-11-11T10:53:55.925Z,99.99
2016-11-11T10:55:09.667Z,99.99
2016-11-11T10:56:23.342Z,99.99
2016-11-11T10:57:36.884Z,99.99
2016-11-11T10:58:50.427Z,99.99
2016-11-11T11:00:04.047Z,99.99
2016-11-11T11:01:17.676Z,99.99
2016-11-11T11:02:31.282Z,99.99
2016-11-11T11:03:44.917Z,99.99
2016-11-11T11:04:58.593Z,99.99
2016-11-11T11:06:12.153Z,99.99
2016-11-11T11:07:25.755Z,99.99
2016-11-11T11:08:39.659Z,99.99
2016-11-11T11:09:53.250Z,99.94
2016-11-11T11:11:06.837Z,99.6
2016-11-11T11:12:20.586Z,99.79
2016-11-11T11:13:34.096Z,99.02
2016-11-11T11:14:47.696Z,99.5
2016-11-11T11:16:01.320Z,98.44
2016-11-11T11:17:14.888Z,98.05
2016-11-11T11:18:28.469Z,97.86
2016-11-11T11:20:12.937Z,98.54
2016-11-11T11:21:26.486Z,98
2016-11-11T11:22:40.244Z,98.58
2016-11-11T11:23:53.875Z,97.91
2016-11-11T11:25:07.679Z,97.14
2016-11-11T11:26:21.684Z,96.84
2016-11-11T11:27:35.276Z,96.46
2016-11-11T11:28:48.843Z,96.46
2016-11-11T11:30:01.982Z,96.26
2016-11-11T11:31:15.622Z,96.6
2016-11-11T11:32:29.225Z,96.41
2016-11-11T11:33:42.796Z,96.31
2016-11-11T11:34:56.413Z,96.51
2016-11-11T11:36:10.073Z,96.8
2016-11-11T11:37:23.693Z,95.15
2016-11-11T11:38:37.268Z,95.25
2016-11-11T11:39:50.894Z,94.62
2016-11-11T11:41:04.579Z,95.2
2016-11-11T11:42:17.747Z,94.62
2016-11-11T11:43:31.389Z,94.62
2016-11-11T11:44:45.015Z,95.49
2016-11-11T11:45:58.606Z,95.1
2016-11-11T11:47:12.166Z,94.91
2016-11-11T11:48:25.244Z,94.62
2016-11-11T11:49:38.856Z,94.62
2016-11-11T11:50:52.436Z,94.43
2016-11-11T11:52:06.024Z,94.76
2016-11-11T11:53:19.633Z,94.81
2016-11-11T11:54:32.901Z,93.51
2016-11-11T11:55:46.227Z,93.7
2016-11-11T11:56:59.837Z,92.54
2016-11-11T11:58:13.915Z,92.77
2016-11-11T11:59:27.586Z,93.07
2016-11-11T12:00:40.882Z,92.49
2016-11-11T12:01:54.461Z,92.68
2016-11-11T12:03:08.070Z,92.29
2016-11-11T12:04:21.769Z,92.68
2016-11-11T12:05:34.910Z,92.68
2016-11-11T12:06:48.179Z,92.19
2016-11-11T12:08:01.782Z,92.19
2016-11-11T12:09:15.509Z,92.77
2016-11-11T12:10:29.127Z,91.71
2016-11-11T12:11:42.661Z,91.9
2016-11-11T12:12:56.302Z,92.72
2016-11-11T12:14:09.949Z,92.68
2016-11-11T12:15:23.540Z,92.19
2016-11-11T12:16:37.139Z,91.56
2016-11-11T12:17:50.258Z,91.85
2016-11-11T12:19:03.824Z,92.24
2016-11-11T12:20:17.456Z,90.78
2016-11-11T12:21:31.154Z,91.27
2016-11-11T12:22:44.718Z,91.56
2016-11-11T12:23:58.386Z,91.17
2016-11-11T12:25:11.955Z,90.78
2016-11-11T12:26:25.643Z,90.59
2016-11-11T12:27:39.697Z,91.61
2016-11-11T12:29:24.442Z,91.51
2016-11-11T12:30:38.129Z,90.44
2016-11-11T12:31:51.709Z,90.83
2016-11-11T12:33:05.418Z,90.34
2016-11-11T12:34:18.979Z,90.34
2016-11-11T12:35:32.647Z,90.16
2016-11-11T12:36:46.325Z,90.16
2016-11-11T12:37:59.720Z,90.54
2016-11-11T12:39:13.357Z,89.67
2016-11-11T12:40:27.072Z,90.34
2016-11-11T12:41:40.854Z,88.93
2016-11-11T12:42:54.468Z,89.42
2016-11-11T12:44:07.859Z,89.9
2016-11-11T12:45:21.520Z,89.52
2016-11-11T12:46:35.217Z,89.32
2016-11-11T12:47:48.946Z,89.61
2016-11-11T12:49:02.698Z,89.07
2016-11-11T12:50:16.368Z,88.98
2016-11-11T12:51:29.667Z,87.62
2016-11-11T12:52:43.325Z,88.05
2016-11-11T12:53:57.080Z,88.93
2016-11-11T12:55:10.901Z,85.47
2016-11-11T12:56:23.960Z,86.01
2016-11-11T12:57:37.705Z,86.74
2016-11-11T12:58:51.256Z,85.38
2016-11-11T13:00:04.887Z,85.08
2016-11-11T13:01:18.484Z,84.25
2016-11-11T13:02:31.978Z,83.47
2016-11-11T13:03:45.618Z,84.16
2016-11-11T13:04:59.168Z,83.47
2016-11-11T13:06:12.784Z,82.64
2016-11-11T13:07:26.448Z,82.45
2016-11-11T13:08:40.055Z,82.45
2016-11-11T13:09:53.734Z,81.96
2016-11-11T13:11:07.196Z,82.1
2016-11-11T13:12:20.825Z,81.22
2016-11-11T13:13:34.409Z,81.61
2016-11-11T13:14:48.074Z,81.12
2016-11-11T13:16:01.782Z,81.81
2016-11-11T13:17:15.354Z,81.26
2016-11-11T13:18:28.923Z,80.77
2016-11-11T13:19:42.622Z,81.16
2016-11-11T13:20:56.194Z,81.26
2016-11-11T13:22:09.706Z,80
2016-11-11T13:23:23.364Z,81.4
2016-11-11T13:24:36.730Z,81.1
2016-11-11T13:25:50.392Z,79.94
2016-11-11T13:27:04.080Z,78.87
2016-11-11T13:28:17.755Z,79.49
2016-11-11T13:29:30.805Z,79.43
2016-11-11T13:30:44.170Z,77.29
2016-11-11T13:31:57.778Z,77.29
2016-11-11T13:33:11.444Z,77.29
2016-11-11T13:34:25.085Z,76.8
2016-11-11T13:35:38.707Z,76.8
2016-11-11T13:36:52.440Z,76.8
2016-11-11T13:38:06.582Z,77.34
2016-11-11T13:39:20.211Z,76.8
2016-11-11T13:40:33.876Z,76.61
2016-11-11T13:41:47.481Z,76.02
2016-11-11T13:43:01.163Z,76.64
2016-11-11T13:44:14.802Z,76.31
2016-11-11T13:45:28.409Z,76.06
2016-11-11T13:46:42.029Z,75.96
2016-11-11T13:47:55.678Z,75.57
2016-11-11T13:49:09.789Z,76.15
2016-11-11T13:50:23.444Z,76.25
2016-11-11T13:51:37.003Z,76.84
2016-11-11T13:52:50.622Z,76.45
2016-11-11T13:54:04.184Z,76.9
2016-11-11T13:55:18.174Z,76.61
2016-11-11T13:56:31.818Z,76.8
2016-11-11T13:57:45.320Z,76.02
2016-11-11T13:58:58.945Z,76.19
2016-11-11T14:00:12.599Z,74.73
2016-11-11T14:01:25.635Z,73.79
2016-11-11T14:02:39.157Z,72.52
2016-11-11T14:03:52.765Z,72.07
2016-11-11T14:05:06.590Z,71.88
2016-11-11T14:06:19.678Z,71.74
2016-11-11T14:07:33.450Z,72.42
2016-11-11T14:08:47.171Z,72.72
2016-11-11T14:10:00.783Z,72
2016-11-11T14:11:14.313Z,71.84
2016-11-11T14:12:27.925Z,72.03
2016-11-11T14:13:41.583Z,71.29
2016-11-11T14:14:55.115Z,70.9
2016-11-11T14:16:08.138Z,70.96
2016-11-11T14:17:21.746Z,70.43
2016-11-11T14:18:35.435Z,71.02
2016-11-11T14:19:49.075Z,70.86
2016-11-11T14:21:02.193Z,69.63
2016-11-11T14:22:15.782Z,68.78
2016-11-11T14:23:29.424Z,68.13
2016-11-11T14:24:43.001Z,66.99
2016-11-11T14:25:56.885Z,66.34
2016-11-11T14:27:10.891Z,65.45
2016-11-11T14:28:24.617Z,64.84
2016-11-11T14:29:38.208Z,62.12
2016-11-11T14:30:51.817Z,62.51
2016-11-11T14:32:05.471Z,61.57
2016-11-11T14:33:19.114Z,61.04
2016-11-11T14:34:32.803Z,60.97
2016-11-11T14:35:45.647Z,60.35
2016-11-11T14:36:59.304Z,60.08
2016-11-11T14:38:12.985Z,61.1
2016-11-11T14:39:26.607Z,60.84
2016-11-11T14:40:39.793Z,62.35
2016-11-11T14:41:53.373Z,63.46
2016-11-11T14:43:06.973Z,65
2016-11-11T14:44:20.542Z,64.48
2016-11-11T14:45:34.142Z,64.41
2016-11-11T14:46:47.730Z,64.61
2016-11-11T14:48:01.884Z,63.82
2016-11-11T14:49:15.554Z,62.98
2016-11-11T14:50:29.200Z,62.71
2016-11-11T14:51:42.814Z,61.44
2016-11-11T14:53:27.578Z,60.49
2016-11-11T14:54:41.009Z,59.86
2016-11-11T14:55:54.636Z,58.12
2016-11-11T14:57:08.403Z,58.61
2016-11-11T14:58:22.085Z,58.09
2016-11-11T14:59:35.657Z,57.07
2016-11-11T15:00:49.303Z,57.03
2016-11-11T15:02:02.428Z,57.1
2016-11-11T15:03:16.122Z,56.16
2016-11-11T15:04:29.790Z,55.48
2016-11-11T15:05:42.796Z,55.55
2016-11-11T15:06:56.379Z,55.77
2016-11-11T15:08:09.957Z,55.18
2016-11-11T15:09:23.598Z,55.01
2016-11-11T15:10:37.188Z,54.69
2016-11-11T15:11:50.812Z,54.57
2016-11-11T15:13:04.190Z,56.11
2016-11-11T15:14:17.587Z,56.97
2016-11-11T15:16:02.317Z,57.26
2016-11-11T15:17:15.927Z,57.66
2016-11-11T15:18:29.578Z,56.9
2016-11-11T15:19:43.222Z,57.42
2016-11-11T15:20:56.826Z,56.99
2016-11-11T15:22:10.415Z,57.07
2016-11-11T15:23:24.043Z,56.77
2016-11-11T15:24:37.842Z,57.22
2016-11-11T15:25:51.158Z,57.26
2016-11-11T15:27:04.778Z,57.43
2016-11-11T15:28:18.445Z,57.14
2016-11-11T15:29:32.104Z,57.07
2016-11-11T15:30:45.757Z,56.77
2016-11-11T15:33:44.197Z,57.22
2016-11-11T15:34:57.251Z,58.54
2016-11-11T15:36:10.403Z,59.27
2016-11-11T15:37:23.444Z,60.52
2016-11-11T15:38:36.954Z,59.44
2016-11-11T15:39:50.060Z,58.81
2016-11-11T15:41:03.698Z,59.3
2016-11-11T15:42:17.409Z,60.22
2016-11-11T15:43:30.977Z,60.49
2016-11-11T15:44:44.579Z,61.44
2016-11-11T15:45:58.160Z,61.77
2016-11-11T15:47:11.799Z,62.72
2016-11-11T15:48:25.544Z,62.59
2016-11-11T15:49:38.627Z,62.88
2016-11-11T15:50:52.247Z,60.82
2016-11-11T15:52:05.911Z,60.1
2016-11-11T15:53:19.640Z,58.85
2016-11-11T15:54:33.596Z,58.39
2016-11-11T15:55:47.115Z,57.56
2016-11-11T15:57:00.352Z,57.56
2016-11-11T15:58:14.081Z,56.01
2016-11-11T15:59:26.866Z,55.65
2016-11-11T16:00:40.518Z,54.43